sensor_id;sensor_type;location;lat;lon;timestamp;temperature;humidity
48551;DHT22;34397;51.176;6.738;2023-11-25T00:01:40;3.70;82.70
48551;DHT22;34397;51.176;6.738;2023-11-25T00:04:11;3.70;82.50
48551;DHT22;34397;51.176;6.738;2023-11-25T00:06:45;3.70;81.80
48551;DHT22;34397;51.176;6.738;2023-11-25T00:09:17;3.70;81.50
48551;DHT22;34397;51.176;6.738;2023-11-25T00:11:49;3.70;81.70
48551;DHT22;34397;51.176;6.738;2023-11-25T00:14:20;3.70;81.40
48551;DHT22;34397;51.176;6.738;2023-11-25T00:16:52;3.60;81.30
48551;DHT22;34397;51.176;6.738;2023-11-25T00:19:24;3.60;81.40
48551;DHT22;34397;51.176;6.738;2023-11-25T00:21:57;3.60;81.20
48551;DHT22;34397;51.176;6.738;2023-11-25T00:24:29;3.50;81.20
48551;DHT22;34397;51.176;6.738;2023-11-25T00:27:02;3.50;81.50
48551;DHT22;34397;51.176;6.738;2023-11-25T00:29:34;3.40;81.70
48551;DHT22;34397;51.176;6.738;2023-11-25T00:32:06;3.40;82.00
48551;DHT22;34397;51.176;6.738;2023-11-25T00:34:38;3.30;82.20
48551;DHT22;34397;51.176;6.738;2023-11-25T00:37:11;3.30;82.30
48551;DHT22;34397;51.176;6.738;2023-11-25T00:39:43;3.30;82.40
48551;DHT22;34397;51.176;6.738;2023-11-25T00:42:15;3.30;82.40
48551;DHT22;34397;51.176;6.738;2023-11-25T00:44:47;3.30;82.30
48551;DHT22;34397;51.176;6.738;2023-11-25T00:47:19;3.30;82.30
48551;DHT22;34397;51.176;6.738;2023-11-25T00:49:52;3.30;82.30
48551;DHT22;34397;51.176;6.738;2023-11-25T00:52:27;3.30;82.30
48551;DHT22;34397;51.176;6.738;2023-11-25T00:54:59;3.30;82.30
48551;DHT22;34397;51.176;6.738;2023-11-25T00:57:31;3.20;82.40
48551;DHT22;34397;51.176;6.738;2023-11-25T01:00:03;3.20;82.50
48551;DHT22;34397;51.176;6.738;2023-11-25T01:02:36;3.20;82.70
48551;DHT22;34397;51.176;6.738;2023-11-25T01:05:08;3.10;82.80
48551;DHT22;34397;51.176;6.738;2023-11-25T01:07:41;3.10;83.00
48551;DHT22;34397;51.176;6.738;2023-11-25T01:10:13;3.10;83.10
48551;DHT22;34397;51.176;6.738;2023-11-25T01:12:45;3.10;83.20
48551;DHT22;34397;51.176;6.738;2023-11-25T01:15:17;3.10;83.80
48551;DHT22;34397;51.176;6.738;2023-11-25T01:17:50;3.10;83.50
48551;DHT22;34397;51.176;6.738;2023-11-25T01:20:22;3.10;83.70
48551;DHT22;34397;51.176;6.738;2023-11-25T01:22:55;3.00;83.70
48551;DHT22;34397;51.176;6.738;2023-11-25T01:25:27;3.00;83.70
48551;DHT22;34397;51.176;6.738;2023-11-25T01:27:59;3.00;83.80
48551;DHT22;34397;51.176;6.738;2023-11-25T01:30:31;3.10;84.00
48551;DHT22;34397;51.176;6.738;2023-11-25T01:33:03;3.00;83.80
48551;DHT22;34397;51.176;6.738;2023-11-25T01:35:36;3.00;83.70
48551;DHT22;34397;51.176;6.738;2023-11-25T01:38:10;3.00;83.70
48551;DHT22;34397;51.176;6.738;2023-11-25T01:40:42;3.00;83.50
48551;DHT22;34397;51.176;6.738;2023-11-25T01:43:14;3.00;83.60
48551;DHT22;34397;51.176;6.738;2023-11-25T01:45:47;2.90;83.50
48551;DHT22;34397;51.176;6.738;2023-11-25T01:48:20;2.90;83.80
48551;DHT22;34397;51.176;6.738;2023-11-25T01:50:52;2.80;83.80
48551;DHT22;34397;51.176;6.738;2023-11-25T01:53:26;2.80;83.80
48551;DHT22;34397;51.176;6.738;2023-11-25T01:55:59;2.70;83.70
48551;DHT22;34397;51.176;6.738;2023-11-25T01:58:31;2.70;84.00
48551;DHT22;34397;51.176;6.738;2023-11-25T02:01:03;2.60;84.00
48551;DHT22;34397;51.176;6.738;2023-11-25T02:03:35;2.60;84.10
48551;DHT22;34397;51.176;6.738;2023-11-25T02:06:07;2.60;84.20
48551;DHT22;34397;51.176;6.738;2023-11-25T02:08:42;2.50;84.40
48551;DHT22;34397;51.176;6.738;2023-11-25T02:11:14;2.50;84.30
48551;DHT22;34397;51.176;6.738;2023-11-25T02:13:46;2.50;84.40
48551;DHT22;34397;51.176;6.738;2023-11-25T02:16:18;2.50;84.50
48551;DHT22;34397;51.176;6.738;2023-11-25T02:18:50;2.50;84.30
48551;DHT22;34397;51.176;6.738;2023-11-25T02:21:23;2.50;84.50
48551;DHT22;34397;51.176;6.738;2023-11-25T02:23:56;2.40;84.50
48551;DHT22;34397;51.176;6.738;2023-11-25T02:26:28;2.40;84.40
48551;DHT22;34397;51.176;6.738;2023-11-25T02:29:00;2.40;84.30
48551;DHT22;34397;51.176;6.738;2023-11-25T02:31:32;2.40;84.30
48551;DHT22;34397;51.176;6.738;2023-11-25T02:34:04;2.40;84.40
48551;DHT22;34397;51.176;6.738;2023-11-25T02:36:37;2.40;84.50
48551;DHT22;34397;51.176;6.738;2023-11-25T02:39:11;2.40;84.50
48551;DHT22;34397;51.176;6.738;2023-11-25T02:41:48;2.30;84.50
48551;DHT22;34397;51.176;6.738;2023-11-25T02:44:21;2.30;84.50
48551;DHT22;34397;51.176;6.738;2023-11-25T02:46:53;2.30;84.40
48551;DHT22;34397;51.176;6.738;2023-11-25T02:49:25;2.30;84.30
48551;DHT22;34397;51.176;6.738;2023-11-25T02:51:57;2.30;84.30
48551;DHT22;34397;51.176;6.738;2023-11-25T02:54:30;2.30;84.30
48551;DHT22;34397;51.176;6.738;2023-11-25T02:57:02;2.30;84.40
48551;DHT22;34397;51.176;6.738;2023-11-25T02:59:38;2.20;84.30
48551;DHT22;34397;51.176;6.738;2023-11-25T03:02:09;2.20;84.60
48551;DHT22;34397;51.176;6.738;2023-11-25T03:04:44;2.30;84.70
48551;DHT22;34397;51.176;6.738;2023-11-25T03:07:17;2.20;84.50
48551;DHT22;34397;51.176;6.738;2023-11-25T03:09:51;2.20;84.40
48551;DHT22;34397;51.176;6.738;2023-11-25T03:12:23;2.20;84.40
48551;DHT22;34397;51.176;6.738;2023-11-25T03:14:54;2.20;84.70
48551;DHT22;34397;51.176;6.738;2023-11-25T03:17:26;2.20;84.70
48551;DHT22;34397;51.176;6.738;2023-11-25T03:19:59;2.20;84.70
48551;DHT22;34397;51.176;6.738;2023-11-25T03:22:31;2.10;84.70
48551;DHT22;34397;51.176;6.738;2023-11-25T03:25:05;2.20;84.90
48551;DHT22;34397;51.176;6.738;2023-11-25T03:27:38;2.10;84.90
48551;DHT22;34397;51.176;6.738;2023-11-25T03:30:10;2.10;85.10
48551;DHT22;34397;51.176;6.738;2023-11-25T03:32:43;2.10;85.20
48551;DHT22;34397;51.176;6.738;2023-11-25T03:35:15;2.10;85.20
48551;DHT22;34397;51.176;6.738;2023-11-25T03:37:47;2.10;85.20
48551;DHT22;34397;51.176;6.738;2023-11-25T03:40:20;2.20;85.30
48551;DHT22;34397;51.176;6.738;2023-11-25T03:42:52;2.20;85.30
48551;DHT22;34397;51.176;6.738;2023-11-25T03:45:24;2.20;85.30
48551;DHT22;34397;51.176;6.738;2023-11-25T03:47:57;2.20;85.50
48551;DHT22;34397;51.176;6.738;2023-11-25T03:50:29;2.20;85.60
48551;DHT22;34397;51.176;6.738;2023-11-25T03:53:01;2.20;85.80
48551;DHT22;34397;51.176;6.738;2023-11-25T03:55:35;2.20;85.80
48551;DHT22;34397;51.176;6.738;2023-11-25T03:58:06;2.30;85.80
48551;DHT22;34397;51.176;6.738;2023-11-25T04:00:38;2.30;85.90
48551;DHT22;34397;51.176;6.738;2023-11-25T04:03:11;2.30;86.00
48551;DHT22;34397;51.176;6.738;2023-11-25T04:05:43;2.30;85.90
48551;DHT22;34397;51.176;6.738;2023-11-25T04:08:14;2.40;86.00
48551;DHT22;34397;51.176;6.738;2023-11-25T04:10:48;2.40;86.40
48551;DHT22;34397;51.176;6.738;2023-11-25T04:13:21;2.40;85.60
48551;DHT22;34397;51.176;6.738;2023-11-25T04:15:53;2.40;85.40
48551;DHT22;34397;51.176;6.738;2023-11-25T04:18:25;2.40;85.40
48551;DHT22;34397;51.176;6.738;2023-11-25T04:20:57;2.40;85.10
48551;DHT22;34397;51.176;6.738;2023-11-25T04:23:29;2.40;85.10
48551;DHT22;34397;51.176;6.738;2023-11-25T04:26:02;2.40;85.20
48551;DHT22;34397;51.176;6.738;2023-11-25T04:28:36;2.40;85.10
48551;DHT22;34397;51.176;6.738;2023-11-25T04:31:10;2.40;85.20
48551;DHT22;34397;51.176;6.738;2023-11-25T04:33:41;2.30;85.20
48551;DHT22;34397;51.176;6.738;2023-11-25T04:36:14;2.40;85.30
48551;DHT22;34397;51.176;6.738;2023-11-25T04:38:46;2.30;85.30
48551;DHT22;34397;51.176;6.738;2023-11-25T04:41:19;2.30;85.20
48551;DHT22;34397;51.176;6.738;2023-11-25T04:43:53;2.30;85.20
48551;DHT22;34397;51.176;6.738;2023-11-25T04:46:25;2.30;85.30
48551;DHT22;34397;51.176;6.738;2023-11-25T04:48:57;2.30;85.40
48551;DHT22;34397;51.176;6.738;2023-11-25T04:51:28;2.30;85.40
48551;DHT22;34397;51.176;6.738;2023-11-25T04:54:02;2.30;85.50
48551;DHT22;34397;51.176;6.738;2023-11-25T04:56:36;2.30;85.60
48551;DHT22;34397;51.176;6.738;2023-11-25T04:59:08;2.30;85.50
48551;DHT22;34397;51.176;6.738;2023-11-25T05:01:41;2.30;86.10
48551;DHT22;34397;51.176;6.738;2023-11-25T05:04:13;2.30;85.50
48551;DHT22;34397;51.176;6.738;2023-11-25T05:06:45;2.20;85.60
48551;DHT22;34397;51.176;6.738;2023-11-25T05:09:17;2.30;85.60
48551;DHT22;34397;51.176;6.738;2023-11-25T05:11:50;2.30;85.70
48551;DHT22;34397;51.176;6.738;2023-11-25T05:14:22;2.20;85.70
48551;DHT22;34397;51.176;6.738;2023-11-25T05:16:54;2.20;85.70
48551;DHT22;34397;51.176;6.738;2023-11-25T05:19:27;2.20;85.90
48551;DHT22;34397;51.176;6.738;2023-11-25T05:21:59;2.30;85.80
48551;DHT22;34397;51.176;6.738;2023-11-25T05:24:31;2.20;86.40
48551;DHT22;34397;51.176;6.738;2023-11-25T05:27:04;2.30;86.10
48551;DHT22;34397;51.176;6.738;2023-11-25T05:29:36;2.30;86.20
48551;DHT22;34397;51.176;6.738;2023-11-25T05:32:08;2.20;86.20
48551;DHT22;34397;51.176;6.738;2023-11-25T05:34:39;2.20;86.90
48551;DHT22;34397;51.176;6.738;2023-11-25T05:37:11;2.20;86.40
48551;DHT22;34397;51.176;6.738;2023-11-25T05:39:44;2.30;86.40
48551;DHT22;34397;51.176;6.738;2023-11-25T05:42:17;2.30;86.40
48551;DHT22;34397;51.176;6.738;2023-11-25T05:44:55;2.30;86.40
48551;DHT22;34397;51.176;6.738;2023-11-25T05:47:28;2.30;86.50
48551;DHT22;34397;51.176;6.738;2023-11-25T05:50:00;2.30;86.30
48551;DHT22;34397;51.176;6.738;2023-11-25T05:52:33;2.40;86.60
48551;DHT22;34397;51.176;6.738;2023-11-25T05:55:06;2.40;86.70
48551;DHT22;34397;51.176;6.738;2023-11-25T05:57:39;2.40;86.50
48551;DHT22;34397;51.176;6.738;2023-11-25T06:00:12;2.40;87.30
48551;DHT22;34397;51.176;6.738;2023-11-25T06:02:44;2.40;86.70
48551;DHT22;34397;51.176;6.738;2023-11-25T06:05:16;2.40;86.60
48551;DHT22;34397;51.176;6.738;2023-11-25T06:07:48;2.40;86.60
48551;DHT22;34397;51.176;6.738;2023-11-25T06:10:21;2.40;86.50
48551;DHT22;34397;51.176;6.738;2023-11-25T06:12:55;2.50;86.80
48551;DHT22;34397;51.176;6.738;2023-11-25T06:15:27;2.50;86.50
48551;DHT22;34397;51.176;6.738;2023-11-25T06:17:59;2.50;86.40
48551;DHT22;34397;51.176;6.738;2023-11-25T06:20:31;2.50;86.40
48551;DHT22;34397;51.176;6.738;2023-11-25T06:23:05;2.60;86.50
48551;DHT22;34397;51.176;6.738;2023-11-25T06:25:36;2.60;86.40
48551;DHT22;34397;51.176;6.738;2023-11-25T06:28:12;2.60;86.30
48551;DHT22;34397;51.176;6.738;2023-11-25T06:30:45;2.70;86.40
48551;DHT22;34397;51.176;6.738;2023-11-25T06:33:23;2.70;86.20
48551;DHT22;34397;51.176;6.738;2023-11-25T06:35:55;2.80;86.30
48551;DHT22;34397;51.176;6.738;2023-11-25T06:38:27;2.80;86.00
48551;DHT22;34397;51.176;6.738;2023-11-25T06:40:59;2.80;85.60
48551;DHT22;34397;51.176;6.738;2023-11-25T06:43:33;2.90;85.70
48551;DHT22;34397;51.176;6.738;2023-11-25T06:46:08;2.80;85.60
48551;DHT22;34397;51.176;6.738;2023-11-25T06:48:40;2.80;85.70
48551;DHT22;34397;51.176;6.738;2023-11-25T06:51:11;2.80;85.80
48551;DHT22;34397;51.176;6.738;2023-11-25T06:53:43;2.80;85.90
48551;DHT22;34397;51.176;6.738;2023-11-25T06:56:15;2.90;85.60
48551;DHT22;34397;51.176;6.738;2023-11-25T06:58:49;2.90;85.70
48551;DHT22;34397;51.176;6.738;2023-11-25T07:01:22;2.90;85.60
48551;DHT22;34397;51.176;6.738;2023-11-25T07:03:54;3.00;85.50
48551;DHT22;34397;51.176;6.738;2023-11-25T07:06:26;3.00;85.40
48551;DHT22;34397;51.176;6.738;2023-11-25T07:08:58;3.00;85.10
48551;DHT22;34397;51.176;6.738;2023-11-25T07:11:31;3.00;85.20
48551;DHT22;34397;51.176;6.738;2023-11-25T07:14:06;3.00;85.10
48551;DHT22;34397;51.176;6.738;2023-11-25T07:16:38;3.00;85.20
48551;DHT22;34397;51.176;6.738;2023-11-25T07:19:10;3.00;85.00
48551;DHT22;34397;51.176;6.738;2023-11-25T07:21:42;3.00;85.00
48551;DHT22;34397;51.176;6.738;2023-11-25T07:24:14;3.00;85.00
48551;DHT22;34397;51.176;6.738;2023-11-25T07:26:46;3.00;85.20
48551;DHT22;34397;51.176;6.738;2023-11-25T07:29:23;3.00;85.10
48551;DHT22;34397;51.176;6.738;2023-11-25T07:31:59;3.00;85.10
48551;DHT22;34397;51.176;6.738;2023-11-25T07:34:31;3.00;85.10
48551;DHT22;34397;51.176;6.738;2023-11-25T07:37:03;2.90;85.10
48551;DHT22;34397;51.176;6.738;2023-11-25T07:39:36;3.00;85.30
48551;DHT22;34397;51.176;6.738;2023-11-25T07:42:08;3.00;85.30
48551;DHT22;34397;51.176;6.738;2023-11-25T07:44:42;3.00;85.20
48551;DHT22;34397;51.176;6.738;2023-11-25T07:47:14;3.00;85.20
48551;DHT22;34397;51.176;6.738;2023-11-25T07:49:46;3.00;85.10
48551;DHT22;34397;51.176;6.738;2023-11-25T07:52:18;3.10;85.10
48551;DHT22;34397;51.176;6.738;2023-11-25T07:54:50;3.10;85.60
48551;DHT22;34397;51.176;6.738;2023-11-25T07:57:21;3.10;85.70
48551;DHT22;34397;51.176;6.738;2023-11-25T07:59:56;3.10;85.60
48551;DHT22;34397;51.176;6.738;2023-11-25T08:02:28;3.10;85.60
48551;DHT22;34397;51.176;6.738;2023-11-25T08:05:00;3.20;85.90
48551;DHT22;34397;51.176;6.738;2023-11-25T08:07:32;3.20;85.70
48551;DHT22;34397;51.176;6.738;2023-11-25T08:10:05;3.20;86.10
48551;DHT22;34397;51.176;6.738;2023-11-25T08:12:38;3.30;86.20
48551;DHT22;34397;51.176;6.738;2023-11-25T08:15:12;3.40;86.00
48551;DHT22;34397;51.176;6.738;2023-11-25T08:17:44;3.50;85.20
48551;DHT22;34397;51.176;6.738;2023-11-25T08:20:16;3.50;84.60
48551;DHT22;34397;51.176;6.738;2023-11-25T08:22:48;3.50;84.80
48551;DHT22;34397;51.176;6.738;2023-11-25T08:25:20;3.50;84.90
48551;DHT22;34397;51.176;6.738;2023-11-25T08:27:52;3.50;84.90
48551;DHT22;34397;51.176;6.738;2023-11-25T08:30:25;3.50;85.10
48551;DHT22;34397;51.176;6.738;2023-11-25T08:32:59;3.50;85.00
48551;DHT22;34397;51.176;6.738;2023-11-25T08:35:31;3.50;85.10
48551;DHT22;34397;51.176;6.738;2023-11-25T08:38:03;3.50;85.10
48551;DHT22;34397;51.176;6.738;2023-11-25T08:40:35;3.50;85.40
48551;DHT22;34397;51.176;6.738;2023-11-25T08:43:07;3.40;85.90
48551;DHT22;34397;51.176;6.738;2023-11-25T08:45:43;3.40;86.10
48551;DHT22;34397;51.176;6.738;2023-11-25T08:48:18;3.50;86.10
48551;DHT22;34397;51.176;6.738;2023-11-25T08:50:50;3.50;86.40
48551;DHT22;34397;51.176;6.738;2023-11-25T08:53:22;3.50;86.50
48551;DHT22;34397;51.176;6.738;2023-11-25T08:55:54;3.30;87.00
48551;DHT22;34397;51.176;6.738;2023-11-25T08:58:29;3.40;87.70
48551;DHT22;34397;51.176;6.738;2023-11-25T09:01:03;3.50;87.50
48551;DHT22;34397;51.176;6.738;2023-11-25T09:03:35;3.70;87.20
48551;DHT22;34397;51.176;6.738;2023-11-25T09:06:07;3.80;86.60
48551;DHT22;34397;51.176;6.738;2023-11-25T09:08:39;4.00;86.00
48551;DHT22;34397;51.176;6.738;2023-11-25T09:11:11;4.00;85.70
48551;DHT22;34397;51.176;6.738;2023-11-25T09:13:43;4.10;85.10
48551;DHT22;34397;51.176;6.738;2023-11-25T09:16:16;4.20;84.90
48551;DHT22;34397;51.176;6.738;2023-11-25T09:18:48;4.30;84.80
48551;DHT22;34397;51.176;6.738;2023-11-25T09:21:20;4.30;84.50
48551;DHT22;34397;51.176;6.738;2023-11-25T09:23:52;4.40;84.10
48551;DHT22;34397;51.176;6.738;2023-11-25T09:26:25;4.40;83.70
48551;DHT22;34397;51.176;6.738;2023-11-25T09:28:57;4.50;83.70
48551;DHT22;34397;51.176;6.738;2023-11-25T09:31:31;4.50;83.80
48551;DHT22;34397;51.176;6.738;2023-11-25T09:34:04;4.60;83.80
48551;DHT22;34397;51.176;6.738;2023-11-25T09:36:35;4.70;83.50
48551;DHT22;34397;51.176;6.738;2023-11-25T09:39:07;4.70;83.30
48551;DHT22;34397;51.176;6.738;2023-11-25T09:41:40;4.70;83.10
48551;DHT22;34397;51.176;6.738;2023-11-25T09:44:13;4.70;83.50
48551;DHT22;34397;51.176;6.738;2023-11-25T09:46:49;4.80;83.00
48551;DHT22;34397;51.176;6.738;2023-11-25T09:49:21;4.90;83.40
48551;DHT22;34397;51.176;6.738;2023-11-25T09:51:54;4.90;82.90
48551;DHT22;34397;51.176;6.738;2023-11-25T09:54:35;4.90;82.50
48551;DHT22;34397;51.176;6.738;2023-11-25T09:57:07;5.00;82.50
48551;DHT22;34397;51.176;6.738;2023-11-25T09:59:40;5.10;82.40
48551;DHT22;34397;51.176;6.738;2023-11-25T10:02:16;5.20;82.50
48551;DHT22;34397;51.176;6.738;2023-11-25T10:04:48;5.20;82.00
48551;DHT22;34397;51.176;6.738;2023-11-25T10:07:20;5.30;81.90
48551;DHT22;34397;51.176;6.738;2023-11-25T10:09:54;5.30;81.80
48551;DHT22;34397;51.176;6.738;2023-11-25T10:12:26;5.40;81.60
48551;DHT22;34397;51.176;6.738;2023-11-25T10:14:58;5.40;81.30
48551;DHT22;34397;51.176;6.738;2023-11-25T10:17:33;5.50;80.80
48551;DHT22;34397;51.176;6.738;2023-11-25T10:20:06;5.50;80.60
48551;DHT22;34397;51.176;6.738;2023-11-25T10:22:43;5.40;80.10
48551;DHT22;34397;51.176;6.738;2023-11-25T10:25:17;5.40;80.20
48551;DHT22;34397;51.176;6.738;2023-11-25T10:27:50;5.30;79.80
48551;DHT22;34397;51.176;6.738;2023-11-25T10:30:22;5.30;80.60
48551;DHT22;34397;51.176;6.738;2023-11-25T10:32:56;5.30;81.10
48551;DHT22;34397;51.176;6.738;2023-11-25T10:35:34;5.30;81.30
48551;DHT22;34397;51.176;6.738;2023-11-25T10:38:05;5.30;82.00
48551;DHT22;34397;51.176;6.738;2023-11-25T10:40:37;5.40;81.30
48551;DHT22;34397;51.176;6.738;2023-11-25T10:43:09;5.60;81.50
48551;DHT22;34397;51.176;6.738;2023-11-25T10:45:42;5.70;80.90
48551;DHT22;34397;51.176;6.738;2023-11-25T10:48:15;5.90;79.40
48551;DHT22;34397;51.176;6.738;2023-11-25T10:50:47;5.90;78.50
48551;DHT22;34397;51.176;6.738;2023-11-25T10:53:20;5.90;78.60
48551;DHT22;34397;51.176;6.738;2023-11-25T10:55:54;5.90;78.60
48551;DHT22;34397;51.176;6.738;2023-11-25T10:58:28;5.90;78.40
48551;DHT22;34397;51.176;6.738;2023-11-25T11:01:01;5.90;78.50
48551;DHT22;34397;51.176;6.738;2023-11-25T11:03:52;5.90;79.30
48551;DHT22;34397;51.176;6.738;2023-11-25T11:06:29;5.90;78.70
48551;DHT22;34397;51.176;6.738;2023-11-25T11:09:07;5.90;78.20
48551;DHT22;34397;51.176;6.738;2023-11-25T11:11:50;5.90;78.50
48551;DHT22;34397;51.176;6.738;2023-11-25T11:14:26;6.00;78.80
48551;DHT22;34397;51.176;6.738;2023-11-25T11:17:06;6.00;78.60
48551;DHT22;34397;51.176;6.738;2023-11-25T11:19:46;6.10;79.60
48551;DHT22;34397;51.176;6.738;2023-11-25T11:22:21;6.10;78.40
48551;DHT22;34397;51.176;6.738;2023-11-25T11:25:03;6.10;78.40
48551;DHT22;34397;51.176;6.738;2023-11-25T11:27:46;6.10;78.70
48551;DHT22;34397;51.176;6.738;2023-11-25T11:30:33;6.10;79.30
48551;DHT22;34397;51.176;6.738;2023-11-25T11:33:12;6.00;78.60
48551;DHT22;34397;51.176;6.738;2023-11-25T11:35:46;6.00;79.20
48551;DHT22;34397;51.176;6.738;2023-11-25T11:38:23;6.00;78.50
48551;DHT22;34397;51.176;6.738;2023-11-25T11:40:58;6.00;79.40
48551;DHT22;34397;51.176;6.738;2023-11-25T11:43:31;6.00;79.60
48551;DHT22;34397;51.176;6.738;2023-11-25T11:46:03;6.10;79.70
48551;DHT22;34397;51.176;6.738;2023-11-25T11:48:37;6.00;81.00
48551;DHT22;34397;51.176;6.738;2023-11-25T11:51:11;5.90;81.80
48551;DHT22;34397;51.176;6.738;2023-11-25T11:53:43;5.80;82.20
48551;DHT22;34397;51.176;6.738;2023-11-25T11:56:15;5.80;82.50
48551;DHT22;34397;51.176;6.738;2023-11-25T11:58:55;5.70;83.20
48551;DHT22;34397;51.176;6.738;2023-11-25T12:01:30;5.60;82.80
48551;DHT22;34397;51.176;6.738;2023-11-25T12:04:02;5.50;83.90
48551;DHT22;34397;51.176;6.738;2023-11-25T12:06:37;5.40;84.30
48551;DHT22;34397;51.176;6.738;2023-11-25T12:09:10;5.30;84.90
48551;DHT22;34397;51.176;6.738;2023-11-25T12:11:41;5.20;85.00
48551;DHT22;34397;51.176;6.738;2023-11-25T12:14:15;5.10;85.10
48551;DHT22;34397;51.176;6.738;2023-11-25T12:16:46;5.10;85.50
48551;DHT22;34397;51.176;6.738;2023-11-25T12:19:18;5.10;86.10
48551;DHT22;34397;51.176;6.738;2023-11-25T12:21:51;5.10;86.30
48551;DHT22;34397;51.176;6.738;2023-11-25T12:24:23;5.10;86.40
48551;DHT22;34397;51.176;6.738;2023-11-25T12:26:55;5.20;86.40
48551;DHT22;34397;51.176;6.738;2023-11-25T12:29:32;5.10;86.10
48551;DHT22;34397;51.176;6.738;2023-11-25T12:32:05;5.10;86.20
48551;DHT22;34397;51.176;6.738;2023-11-25T12:34:37;5.10;86.50
48551;DHT22;34397;51.176;6.738;2023-11-25T12:37:10;5.20;86.70
48551;DHT22;34397;51.176;6.738;2023-11-25T12:39:43;5.20;87.20
48551;DHT22;34397;51.176;6.738;2023-11-25T12:42:22;5.20;87.60
48551;DHT22;34397;51.176;6.738;2023-11-25T12:44:54;5.20;87.80
48551;DHT22;34397;51.176;6.738;2023-11-25T12:47:26;5.20;87.30
48551;DHT22;34397;51.176;6.738;2023-11-25T12:50:05;5.30;87.30
48551;DHT22;34397;51.176;6.738;2023-11-25T12:52:44;5.30;87.90
48551;DHT22;34397;51.176;6.738;2023-11-25T12:55:33;5.30;86.90
48551;DHT22;34397;51.176;6.738;2023-11-25T12:58:10;5.30;86.60
48551;DHT22;34397;51.176;6.738;2023-11-25T13:00:47;5.30;86.80
48551;DHT22;34397;51.176;6.738;2023-11-25T13:03:22;5.40;86.90
48551;DHT22;34397;51.176;6.738;2023-11-25T13:05:57;5.30;86.00
48551;DHT22;34397;51.176;6.738;2023-11-25T13:08:33;5.40;86.70
48551;DHT22;34397;51.176;6.738;2023-11-25T13:11:08;5.50;86.50
48551;DHT22;34397;51.176;6.738;2023-11-25T13:13:40;5.50;85.90
48551;DHT22;34397;51.176;6.738;2023-11-25T13:16:12;5.60;84.80
48551;DHT22;34397;51.176;6.738;2023-11-25T13:18:47;5.60;85.40
48551;DHT22;34397;51.176;6.738;2023-11-25T13:21:19;5.70;84.10
48551;DHT22;34397;51.176;6.738;2023-11-25T13:23:52;5.70;84.70
48551;DHT22;34397;51.176;6.738;2023-11-25T13:26:24;5.80;83.60
48551;DHT22;34397;51.176;6.738;2023-11-25T13:28:58;5.90;84.60
48551;DHT22;34397;51.176;6.738;2023-11-25T13:31:30;6.10;84.50
48551;DHT22;34397;51.176;6.738;2023-11-25T13:34:03;6.40;83.90
48551;DHT22;34397;51.176;6.738;2023-11-25T13:36:36;6.90;82.50
48551;DHT22;34397;51.176;6.738;2023-11-25T13:39:10;7.20;80.50
48551;DHT22;34397;51.176;6.738;2023-11-25T13:41:46;7.50;77.80
48551;DHT22;34397;51.176;6.738;2023-11-25T13:44:18;7.60;78.10
48551;DHT22;34397;51.176;6.738;2023-11-25T13:46:50;7.70;76.70
48551;DHT22;34397;51.176;6.738;2023-11-25T13:49:22;7.70;76.60
48551;DHT22;34397;51.176;6.738;2023-11-25T13:51:54;7.50;76.10
48551;DHT22;34397;51.176;6.738;2023-11-25T13:54:27;7.40;77.10
48551;DHT22;34397;51.176;6.738;2023-11-25T13:57:00;7.30;76.50
48551;DHT22;34397;51.176;6.738;2023-11-25T13:59:31;7.20;77.30
48551;DHT22;34397;51.176;6.738;2023-11-25T14:02:03;7.10;77.60
48551;DHT22;34397;51.176;6.738;2023-11-25T14:04:37;7.00;77.50
48551;DHT22;34397;51.176;6.738;2023-11-25T14:07:09;6.90;78.30
48551;DHT22;34397;51.176;6.738;2023-11-25T14:09:42;6.80;78.40
48551;DHT22;34397;51.176;6.738;2023-11-25T14:12:14;6.70;79.00
48551;DHT22;34397;51.176;6.738;2023-11-25T14:14:46;6.70;78.80
48551;DHT22;34397;51.176;6.738;2023-11-25T14:17:18;6.50;78.90
48551;DHT22;34397;51.176;6.738;2023-11-25T14:19:51;6.50;80.00
48551;DHT22;34397;51.176;6.738;2023-11-25T14:22:23;6.40;81.30
48551;DHT22;34397;51.176;6.738;2023-11-25T14:24:56;6.20;83.20
48551;DHT22;34397;51.176;6.738;2023-11-25T14:27:28;6.10;82.60
48551;DHT22;34397;51.176;6.738;2023-11-25T14:30:00;6.20;83.00
48551;DHT22;34397;51.176;6.738;2023-11-25T14:32:33;6.30;82.90
48551;DHT22;34397;51.176;6.738;2023-11-25T14:35:06;6.20;82.90
48551;DHT22;34397;51.176;6.738;2023-11-25T14:37:39;6.20;83.40
48551;DHT22;34397;51.176;6.738;2023-11-25T14:40:13;6.20;83.40
48551;DHT22;34397;51.176;6.738;2023-11-25T14:42:48;6.20;84.00
48551;DHT22;34397;51.176;6.738;2023-11-25T14:45:21;6.20;83.70
48551;DHT22;34397;51.176;6.738;2023-11-25T14:47:52;6.20;84.00
48551;DHT22;34397;51.176;6.738;2023-11-25T14:50:24;6.10;84.30
48551;DHT22;34397;51.176;6.738;2023-11-25T14:52:56;6.00;84.20
48551;DHT22;34397;51.176;6.738;2023-11-25T14:55:31;6.00;84.30
48551;DHT22;34397;51.176;6.738;2023-11-25T14:58:03;5.80;84.50
48551;DHT22;34397;51.176;6.738;2023-11-25T15:00:34;5.80;85.10
48551;DHT22;34397;51.176;6.738;2023-11-25T15:03:09;5.70;84.90
48551;DHT22;34397;51.176;6.738;2023-11-25T15:05:42;5.60;85.50
48551;DHT22;34397;51.176;6.738;2023-11-25T15:08:14;5.60;85.80
48551;DHT22;34397;51.176;6.738;2023-11-25T15:10:47;5.50;86.30
48551;DHT22;34397;51.176;6.738;2023-11-25T15:13:19;5.50;87.20
48551;DHT22;34397;51.176;6.738;2023-11-25T15:15:51;5.40;86.70
48551;DHT22;34397;51.176;6.738;2023-11-25T15:18:23;5.40;86.90
48551;DHT22;34397;51.176;6.738;2023-11-25T15:20:56;5.40;87.20
48551;DHT22;34397;51.176;6.738;2023-11-25T15:23:32;5.40;87.50
48551;DHT22;34397;51.176;6.738;2023-11-25T15:26:07;5.40;87.60
48551;DHT22;34397;51.176;6.738;2023-11-25T15:28:39;5.30;87.90
48551;DHT22;34397;51.176;6.738;2023-11-25T15:31:11;5.30;88.30
48551;DHT22;34397;51.176;6.738;2023-11-25T15:33:44;5.30;88.40
48551;DHT22;34397;51.176;6.738;2023-11-25T15:36:15;5.20;88.10
48551;DHT22;34397;51.176;6.738;2023-11-25T15:38:48;5.20;87.80
48551;DHT22;34397;51.176;6.738;2023-11-25T15:41:22;5.20;86.70
48551;DHT22;34397;51.176;6.738;2023-11-25T15:43:54;5.10;86.50
48551;DHT22;34397;51.176;6.738;2023-11-25T15:46:26;5.00;86.70
48551;DHT22;34397;51.176;6.738;2023-11-25T15:48:58;5.00;86.80
48551;DHT22;34397;51.176;6.738;2023-11-25T15:51:30;5.00;87.00
48551;DHT22;34397;51.176;6.738;2023-11-25T15:54:02;4.90;87.40
48551;DHT22;34397;51.176;6.738;2023-11-25T15:56:35;4.90;88.00
48551;DHT22;34397;51.176;6.738;2023-11-25T15:59:08;4.90;88.90
48551;DHT22;34397;51.176;6.738;2023-11-25T16:01:40;4.90;88.50
48551;DHT22;34397;51.176;6.738;2023-11-25T16:04:12;4.90;88.70
48551;DHT22;34397;51.176;6.738;2023-11-25T16:06:44;4.90;88.70
48551;DHT22;34397;51.176;6.738;2023-11-25T16:09:16;4.90;88.70
48551;DHT22;34397;51.176;6.738;2023-11-25T16:11:50;4.90;88.60
48551;DHT22;34397;51.176;6.738;2023-11-25T16:14:22;4.90;88.70
48551;DHT22;34397;51.176;6.738;2023-11-25T16:16:54;4.90;88.50
48551;DHT22;34397;51.176;6.738;2023-11-25T16:19:26;4.90;88.30
48551;DHT22;34397;51.176;6.738;2023-11-25T16:21:58;4.90;88.00